sensor_id;sensor_type;location;lat;lon;timestamp;pressure;altitude;pressure_sealevel;temperature
15360;BMP280;7779;49.596;11.070;2023-08-07T00:00:52;97567.34;;;16.83
15360;BMP280;7779;49.596;11.070;2023-08-07T00:03:17;97569.03;;;16.83
15360;BMP280;7779;49.596;11.070;2023-08-07T00:05:50;97572.41;;;16.83
15360;BMP280;7779;49.596;11.070;2023-08-07T00:08:20;97565.59;;;16.81
15360;BMP280;7779;49.596;11.070;2023-08-07T00:10:46;97568.09;;;16.80
15360;BMP280;7779;49.596;11.070;2023-08-07T00:13:13;97574.88;;;16.81
15360;BMP280;7779;49.596;11.070;2023-08-07T00:15:38;97571.47;;;16.79
15360;BMP280;7779;49.596;11.070;2023-08-07T00:18:05;97570.59;;;16.78
15360;BMP280;7779;49.596;11.070;2023-08-07T00:20:30;97573.97;;;16.77
15360;BMP280;7779;49.596;11.070;2023-08-07T00:22:56;97573.09;;;16.77
15360;BMP280;7779;49.596;11.070;2023-08-07T00:25:22;97573.94;;;16.76
15360;BMP280;7779;49.596;11.070;2023-08-07T00:27:47;97574.72;;;16.75
15360;BMP280;7779;49.596;11.070;2023-08-07T00:30:13;97575.56;;;16.74
15360;BMP280;7779;49.596;11.070;2023-08-07T00:32:39;97583.16;;;16.74
15360;BMP280;7779;49.596;11.070;2023-08-07T00:35:06;97569.63;;;16.72
15360;BMP280;7779;49.596;11.070;2023-08-07T00:37:33;97578.91;;;16.73
15360;BMP280;7779;49.596;11.070;2023-08-07T00:40:01;97580.56;;;16.71
15360;BMP280;7779;49.596;11.070;2023-08-07T00:42:28;97581.41;;;16.70
15360;BMP280;7779;49.596;11.070;2023-08-07T00:44:54;97577.97;;;16.68
15360;BMP280;7779;49.596;11.070;2023-08-07T00:47:20;97577.97;;;16.68
15360;BMP280;7779;49.596;11.070;2023-08-07T00:49:47;97587.19;;;16.66
15360;BMP280;7779;49.596;11.070;2023-08-07T00:52:13;97584.66;;;16.66
15360;BMP280;7779;49.596;11.070;2023-08-07T00:54:39;97582.97;;;16.65
15360;BMP280;7779;49.596;11.070;2023-08-07T00:57:12;97588.84;;;16.64
15360;BMP280;7779;49.596;11.070;2023-08-07T00:59:41;97581.22;;;16.61
15360;BMP280;7779;49.596;11.070;2023-08-07T01:02:09;97592.13;;;16.60
15360;BMP280;7779;49.596;11.070;2023-08-07T01:04:35;97586.22;;;16.59
15360;BMP280;7779;49.596;11.070;2023-08-07T01:07:01;97595.47;;;16.57
15360;BMP280;7779;49.596;11.070;2023-08-07T01:09:27;97599.63;;;16.57
15360;BMP280;7779;49.596;11.070;2023-08-07T01:12:17;97600.47;;;16.56
15360;BMP280;7779;49.596;11.070;2023-08-07T01:14:58;97599.59;;;16.54
15360;BMP280;7779;49.596;11.070;2023-08-07T01:17:26;97606.28;;;16.52
15360;BMP280;7779;49.596;11.070;2023-08-07T01:19:53;97613.00;;;16.50
15360;BMP280;7779;49.596;11.070;2023-08-07T01:22:21;97612.13;;;16.49
15360;BMP280;7779;49.596;11.070;2023-08-07T01:24:50;97612.91;;;16.47
15360;BMP280;7779;49.596;11.070;2023-08-07T01:32:58;97617.06;;;16.43
15360;BMP280;7779;49.596;11.070;2023-08-07T01:35:29;97624.59;;;16.42
15360;BMP280;7779;49.596;11.070;2023-08-07T01:37:57;97622.91;;;16.41
15360;BMP280;7779;49.596;11.070;2023-08-07T01:40:25;97617.81;;;16.40
15360;BMP280;7779;49.596;11.070;2023-08-07T01:42:52;97627.88;;;16.38
15360;BMP280;7779;49.596;11.070;2023-08-07T01:45:24;97632.94;;;16.38
15360;BMP280;7779;49.596;11.070;2023-08-07T01:47:50;97630.41;;;16.38
15360;BMP280;7779;49.596;11.070;2023-08-07T01:50:16;97636.31;;;16.39
15360;BMP280;7779;49.596;11.070;2023-08-07T01:52:41;97638.88;;;16.40
15360;BMP280;7779;49.596;11.070;2023-08-07T01:55:07;97647.25;;;16.38
15360;BMP280;7779;49.596;11.070;2023-08-07T01:57:33;97646.38;;;16.37
15360;BMP280;7779;49.596;11.070;2023-08-07T01:59:59;97647.22;;;16.36
15360;BMP280;7779;49.596;11.070;2023-08-07T02:02:25;97648.91;;;16.36
15360;BMP280;7779;49.596;11.070;2023-08-07T02:04:50;97658.97;;;16.34
15360;BMP280;7779;49.596;11.070;2023-08-07T02:07:16;97655.56;;;16.32
15360;BMP280;7779;49.596;11.070;2023-08-07T02:09:42;97659.72;;;16.30
15360;BMP280;7779;49.596;11.070;2023-08-07T02:12:08;97664.78;;;16.30
15360;BMP280;7779;49.596;11.070;2023-08-07T02:14:34;97666.44;;;16.28
15360;BMP280;7779;49.596;11.070;2023-08-07T02:16:59;97664.69;;;16.27
15360;BMP280;7779;49.596;11.070;2023-08-07T02:19:25;97670.56;;;16.26
15360;BMP280;7779;49.596;11.070;2023-08-07T02:21:51;97673.06;;;16.25
15360;BMP280;7779;49.596;11.070;2023-08-07T02:24:17;97678.09;;;16.23
15360;BMP280;7779;49.596;11.070;2023-08-07T02:26:44;97682.25;;;16.23
15360;BMP280;7779;49.596;11.070;2023-08-07T02:29:10;97683.06;;;16.20
15360;BMP280;7779;49.596;11.070;2023-08-07T02:31:35;97684.75;;;16.20
15360;BMP280;7779;49.596;11.070;2023-08-07T02:34:01;97685.53;;;16.19
15360;BMP280;7779;49.596;11.070;2023-08-07T02:36:27;97691.41;;;16.18
15360;BMP280;7779;49.596;11.070;2023-08-07T02:38:52;97687.16;;;16.17
15360;BMP280;7779;49.596;11.070;2023-08-07T02:41:20;97695.56;;;16.17
15360;BMP280;7779;49.596;11.070;2023-08-07T02:43:46;97692.19;;;16.17
15360;BMP280;7779;49.596;11.070;2023-08-07T02:46:12;97693.03;;;16.16
15360;BMP280;7779;49.596;11.070;2023-08-07T02:48:37;97688.78;;;16.15
15360;BMP280;7779;49.596;11.070;2023-08-07T02:51:04;97689.63;;;16.14
15360;BMP280;7779;49.596;11.070;2023-08-07T02:53:30;97692.94;;;16.13
15360;BMP280;7779;49.596;11.070;2023-08-07T02:55:56;97692.91;;;16.11
15360;BMP280;7779;49.596;11.070;2023-08-07T02:58:21;97702.97;;;16.08
15360;BMP280;7779;49.596;11.070;2023-08-07T03:00:47;97699.56;;;16.08
15360;BMP280;7779;49.596;11.070;2023-08-07T03:03:13;97700.41;;;16.07
15360;BMP280;7779;49.596;11.070;2023-08-07T03:05:38;97706.25;;;16.06
15360;BMP280;7779;49.596;11.070;2023-08-07T03:08:04;97703.72;;;16.06
15360;BMP280;7779;49.596;11.070;2023-08-07T03:10:30;97708.72;;;16.04
15360;BMP280;7779;49.596;11.070;2023-08-07T03:12:56;97718.81;;;16.03
15360;BMP280;7779;49.596;11.070;2023-08-07T03:15:21;97716.25;;;16.02
15360;BMP280;7779;49.596;11.070;2023-08-07T03:17:47;97709.47;;;16.01
15360;BMP280;7779;49.596;11.070;2023-08-07T03:20:13;97717.88;;;16.00
15360;BMP280;7779;49.596;11.070;2023-08-07T03:22:38;97725.47;;;16.00
15360;BMP280;7779;49.596;11.070;2023-08-07T03:25:05;97722.06;;;15.99
15360;BMP280;7779;49.596;11.070;2023-08-07T03:27:30;97728.00;;;16.00
15360;BMP280;7779;49.596;11.070;2023-08-07T03:29:56;97728.00;;;16.00
15360;BMP280;7779;49.596;11.070;2023-08-07T03:32:26;97718.75;;;16.00
15360;BMP280;7779;49.596;11.070;2023-08-07T03:34:52;97730.53;;;16.00
15360;BMP280;7779;49.596;11.070;2023-08-07T03:37:18;97741.38;;;15.97
15360;BMP280;7779;49.596;11.070;2023-08-07T03:39:44;97737.16;;;15.96
15360;BMP280;7779;49.596;11.070;2023-08-07T03:42:14;97753.16;;;15.97
15360;BMP280;7779;49.596;11.070;2023-08-07T03:44:44;97751.44;;;15.96
15360;BMP280;7779;49.596;11.070;2023-08-07T03:47:11;97751.44;;;15.96
15360;BMP280;7779;49.596;11.070;2023-08-07T03:49:37;97750.59;;;15.95
15360;BMP280;7779;49.596;11.070;2023-08-07T03:52:03;97752.28;;;15.95
15360;BMP280;7779;49.596;11.070;2023-08-07T03:54:29;97759.00;;;15.94
15360;BMP280;7779;49.596;11.070;2023-08-07T03:56:55;97764.91;;;15.95
15360;BMP280;7779;49.596;11.070;2023-08-07T03:59:21;97761.53;;;15.94
15360;BMP280;7779;49.596;11.070;2023-08-07T04:01:46;97776.72;;;15.96
15360;BMP280;7779;49.596;11.070;2023-08-07T04:04:12;97775.03;;;15.95
15360;BMP280;7779;49.596;11.070;2023-08-07T04:06:38;97769.97;;;15.95
15360;BMP280;7779;49.596;11.070;2023-08-07T04:09:04;97773.28;;;15.94
15360;BMP280;7779;49.596;11.070;2023-08-07T04:11:30;97781.75;;;15.94
15360;BMP280;7779;49.596;11.070;2023-08-07T04:13:56;97782.59;;;15.95
15360;BMP280;7779;49.596;11.070;2023-08-07T04:16:21;97780.91;;;15.95
15360;BMP280;7779;49.596;11.070;2023-08-07T04:18:47;97784.28;;;15.96
15360;BMP280;7779;49.596;11.070;2023-08-07T04:21:13;97790.22;;;15.96
15360;BMP280;7779;49.596;11.070;2023-08-07T04:23:38;97788.53;;;15.97
15360;BMP280;7779;49.596;11.070;2023-08-07T04:26:04;97789.38;;;15.97
15360;BMP280;7779;49.596;11.070;2023-08-07T04:28:30;97794.47;;;15.99
15360;BMP280;7779;49.596;11.070;2023-08-07T04:30:56;97802.06;;;15.99
15360;BMP280;7779;49.596;11.070;2023-08-07T04:33:21;97799.50;;;15.97
15360;BMP280;7779;49.596;11.070;2023-08-07T04:35:48;97803.69;;;15.97
15360;BMP280;7779;49.596;11.070;2023-08-07T04:38:15;97806.22;;;15.97
15360;BMP280;7779;49.596;11.070;2023-08-07T04:40:48;97816.38;;;15.98
15360;BMP280;7779;49.596;11.070;2023-08-07T04:43:18;97806.31;;;16.00
15360;BMP280;7779;49.596;11.070;2023-08-07T04:45:48;97811.38;;;16.00
15360;BMP280;7779;49.596;11.070;2023-08-07T04:48:15;97814.75;;;16.00
15360;BMP280;7779;49.596;11.070;2023-08-07T04:50:42;97817.31;;;16.02
15360;BMP280;7779;49.596;11.070;2023-08-07T04:53:07;97822.38;;;16.02
15360;BMP280;7779;49.596;11.070;2023-08-07T04:55:33;97818.22;;;16.03
15360;BMP280;7779;49.596;11.070;2023-08-07T04:57:59;97822.44;;;16.04
15360;BMP280;7779;49.596;11.070;2023-08-07T05:00:27;97821.63;;;16.05
15360;BMP280;7779;49.596;11.070;2023-08-07T05:02:53;97824.16;;;16.05
15360;BMP280;7779;49.596;11.070;2023-08-07T05:05:18;97829.22;;;16.05
15360;BMP280;7779;49.596;11.070;2023-08-07T05:07:47;97830.91;;;16.06
15360;BMP280;7779;49.596;11.070;2023-08-07T05:10:13;97829.31;;;16.08
15360;BMP280;7779;49.596;11.070;2023-08-07T05:12:39;97832.72;;;16.10
15360;BMP280;7779;49.596;11.070;2023-08-07T05:15:06;97832.78;;;16.13
15360;BMP280;7779;49.596;11.070;2023-08-07T05:17:32;97826.13;;;16.17
15360;BMP280;7779;49.596;11.070;2023-08-07T05:19:57;97830.47;;;16.19
15360;BMP280;7779;49.596;11.070;2023-08-07T05:22:23;97832.16;;;16.20
15360;BMP280;7779;49.596;11.070;2023-08-07T05:24:49;97833.91;;;16.21
15360;BMP280;7779;49.596;11.070;2023-08-07T05:27:15;97831.38;;;16.21
15360;BMP280;7779;49.596;11.070;2023-08-07T05:29:41;97838.13;;;16.22
15360;BMP280;7779;49.596;11.070;2023-08-07T05:32:14;97839.84;;;16.23
15360;BMP280;7779;49.596;11.070;2023-08-07T05:34:40;97847.41;;;16.23
15360;BMP280;7779;49.596;11.070;2023-08-07T05:37:07;97845.69;;;16.22
15360;BMP280;7779;49.596;11.070;2023-08-07T05:39:34;97841.53;;;16.24
15360;BMP280;7779;49.596;11.070;2023-08-07T05:42:00;97844.06;;;16.24
15360;BMP280;7779;49.596;11.070;2023-08-07T05:44:27;97854.16;;;16.24
15360;BMP280;7779;49.596;11.070;2023-08-07T05:46:53;97844.97;;;16.26
15360;BMP280;7779;49.596;11.070;2023-08-07T05:49:19;97853.41;;;16.27
15360;BMP280;7779;49.596;11.070;2023-08-07T05:51:45;97856.78;;;16.27
15360;BMP280;7779;49.596;11.070;2023-08-07T05:54:11;97858.53;;;16.28
15360;BMP280;7779;49.596;11.070;2023-08-07T05:56:38;97856.78;;;16.27
15360;BMP280;7779;49.596;11.070;2023-08-07T05:59:04;97850.06;;;16.28
15360;BMP280;7779;49.596;11.070;2023-08-07T06:01:29;97856.84;;;16.29
15360;BMP280;7779;49.596;11.070;2023-08-07T06:03:58;97860.22;;;16.29
15360;BMP280;7779;49.596;11.070;2023-08-07T06:06:25;97865.31;;;16.31
15360;BMP280;7779;49.596;11.070;2023-08-07T06:08:51;97867.00;;;16.30
15360;BMP280;7779;49.596;11.070;2023-08-07T06:11:17;97879.69;;;16.33
15360;BMP280;7779;49.596;11.070;2023-08-07T06:13:43;97880.59;;;16.35
15360;BMP280;7779;49.596;11.070;2023-08-07T06:16:09;97872.19;;;16.36
15360;BMP280;7779;49.596;11.070;2023-08-07T06:18:36;97884.00;;;16.37
15360;BMP280;7779;49.596;11.070;2023-08-07T06:21:03;97876.41;;;16.36
15360;BMP280;7779;49.596;11.070;2023-08-07T06:23:33;97879.84;;;16.38
15360;BMP280;7779;49.596;11.070;2023-08-07T06:25:59;97886.53;;;16.37
15360;BMP280;7779;49.596;11.070;2023-08-07T06:28:25;97880.69;;;16.38
15360;BMP280;7779;49.596;11.070;2023-08-07T06:30:50;97884.09;;;16.40
15360;BMP280;7779;49.596;11.070;2023-08-07T06:33:16;97893.44;;;16.42
15360;BMP280;7779;49.596;11.070;2023-08-07T06:35:42;97890.94;;;16.44
15360;BMP280;7779;49.596;11.070;2023-08-07T06:38:10;97891.84;;;16.46
15360;BMP280;7779;49.596;11.070;2023-08-07T06:40:37;97891.94;;;16.49
15360;BMP280;7779;49.596;11.070;2023-08-07T06:43:03;97896.19;;;16.50
15360;BMP280;7779;49.596;11.070;2023-08-07T06:45:29;97897.94;;;16.52
15360;BMP280;7779;49.596;11.070;2023-08-07T06:47:54;97906.34;;;16.53
15360;BMP280;7779;49.596;11.070;2023-08-07T06:50:21;97906.34;;;16.53
15360;BMP280;7779;49.596;11.070;2023-08-07T06:52:47;97911.41;;;16.53
15360;BMP280;7779;49.596;11.070;2023-08-07T06:55:13;97905.56;;;16.54
15360;BMP280;7779;49.596;11.070;2023-08-07T06:57:38;97908.88;;;16.53
15360;BMP280;7779;49.596;11.070;2023-08-07T07:00:06;97917.34;;;16.53
15360;BMP280;7779;49.596;11.070;2023-08-07T07:02:31;97913.16;;;16.54
15360;BMP280;7779;49.596;11.070;2023-08-07T07:04:57;97907.25;;;16.53
15360;BMP280;7779;49.596;11.070;2023-08-07T07:07:23;97908.97;;;16.56
15360;BMP280;7779;49.596;11.070;2023-08-07T07:09:49;97911.50;;;16.56
15360;BMP280;7779;49.596;11.070;2023-08-07T07:12:14;97922.50;;;16.58
15360;BMP280;7779;49.596;11.070;2023-08-07T07:14:40;97918.34;;;16.60
15360;BMP280;7779;49.596;11.070;2023-08-07T07:17:06;97927.69;;;16.62
15360;BMP280;7779;49.596;11.070;2023-08-07T07:19:32;97928.59;;;16.64
15360;BMP280;7779;49.596;11.070;2023-08-07T07:21:57;97929.50;;;16.66
15360;BMP280;7779;49.596;11.070;2023-08-07T07:24:23;97930.34;;;16.67
15360;BMP280;7779;49.596;11.070;2023-08-07T07:26:49;97943.88;;;16.69
15360;BMP280;7779;49.596;11.070;2023-08-07T07:29:16;97930.44;;;16.70
15360;BMP280;7779;49.596;11.070;2023-08-07T07:31:42;97944.72;;;16.69
15360;BMP280;7779;49.596;11.070;2023-08-07T07:34:08;97945.59;;;16.70
15360;BMP280;7779;49.596;11.070;2023-08-07T07:36:33;97947.31;;;16.71
15360;BMP280;7779;49.596;11.070;2023-08-07T07:38:59;97949.88;;;16.72
15360;BMP280;7779;49.596;11.070;2023-08-07T07:41:25;97954.16;;;16.75
15360;BMP280;7779;49.596;11.070;2023-08-07T07:43:51;97955.97;;;16.79
15360;BMP280;7779;49.596;11.070;2023-08-07T07:46:16;97961.09;;;16.81
15360;BMP280;7779;49.596;11.070;2023-08-07T07:48:42;97959.44;;;16.83
15360;BMP280;7779;49.596;11.070;2023-08-07T07:51:08;97965.41;;;16.85
15360;BMP280;7779;49.596;11.070;2023-08-07T07:53:34;97959.53;;;16.86
15360;BMP280;7779;49.596;11.070;2023-08-07T07:55:59;97966.28;;;16.87
15360;BMP280;7779;49.596;11.070;2023-08-07T07:58:25;97967.22;;;16.89
15360;BMP280;7779;49.596;11.070;2023-08-07T08:00:51;97974.88;;;16.92
15360;BMP280;7779;49.596;11.070;2023-08-07T08:03:20;97974.06;;;16.93
15360;BMP280;7779;49.596;11.070;2023-08-07T08:05:50;97988.50;;;16.97
15360;BMP280;7779;49.596;11.070;2023-08-07T08:08:15;97988.50;;;16.97
15360;BMP280;7779;49.596;11.070;2023-08-07T08:10:43;97991.03;;;16.97
15360;BMP280;7779;49.596;11.070;2023-08-07T08:13:10;97996.09;;;16.97
15360;BMP280;7779;49.596;11.070;2023-08-07T08:15:36;97996.94;;;16.98
15360;BMP280;7779;49.596;11.070;2023-08-07T08:18:02;98002.84;;;16.98
15360;BMP280;7779;49.596;11.070;2023-08-07T08:20:27;98002.09;;;17.01
15360;BMP280;7779;49.596;11.070;2023-08-07T08:22:55;98003.78;;;17.02
15360;BMP280;7779;49.596;11.070;2023-08-07T08:25:21;98008.91;;;17.03
15360;BMP280;7779;49.596;11.070;2023-08-07T08:27:46;98019.91;;;17.05
15360;BMP280;7779;49.596;11.070;2023-08-07T08:30:12;98023.44;;;17.10
15360;BMP280;7779;49.596;11.070;2023-08-07T08:32:38;98020.97;;;17.13
15360;BMP280;7779;49.596;11.070;2023-08-07T08:35:05;98021.97;;;17.18
15360;BMP280;7779;49.596;11.070;2023-08-07T08:37:31;98025.47;;;17.23
15360;BMP280;7779;49.596;11.070;2023-08-07T08:39:57;98029.88;;;17.30
15360;BMP280;7779;49.596;11.070;2023-08-07T08:42:23;98018.16;;;17.33
15360;BMP280;7779;49.596;11.070;2023-08-07T08:44:56;98025.84;;;17.38
15360;BMP280;7779;49.596;11.070;2023-08-07T08:47:26;98040.34;;;17.42
15360;BMP280;7779;49.596;11.070;2023-08-07T08:50:06;98039.50;;;17.43
15360;BMP280;7779;49.596;11.070;2023-08-07T08:52:33;98043.81;;;17.45
15360;BMP280;7779;49.596;11.070;2023-08-07T08:55:00;98042.13;;;17.46
15360;BMP280;7779;49.596;11.070;2023-08-07T08:57:27;98036.19;;;17.45
15360;BMP280;7779;49.596;11.070;2023-08-07T08:59:53;98042.06;;;17.44
15360;BMP280;7779;49.596;11.070;2023-08-07T09:02:19;98047.09;;;17.43
15360;BMP280;7779;49.596;11.070;2023-08-07T09:04:45;98057.22;;;17.43
15360;BMP280;7779;49.596;11.070;2023-08-07T09:07:15;98053.88;;;17.44
15360;BMP280;7779;49.596;11.070;2023-08-07T09:09:42;98053.06;;;17.45
15360;BMP280;7779;49.596;11.070;2023-08-07T09:12:18;98052.25;;;17.46
15360;BMP280;7779;49.596;11.070;2023-08-07T09:14:56;98071.63;;;17.44
15360;BMP280;7779;49.596;11.070;2023-08-07T09:17:29;98063.13;;;17.43
15360;BMP280;7779;49.596;11.070;2023-08-07T09:19:57;98066.50;;;17.42
15360;BMP280;7779;49.596;11.070;2023-08-07T09:22:23;98062.28;;;17.43
15360;BMP280;7779;49.596;11.070;2023-08-07T09:24:50;98066.59;;;17.45
15360;BMP280;7779;49.596;11.070;2023-08-07T09:27:16;98065.81;;;17.48
15360;BMP280;7779;49.596;11.070;2023-08-07T09:29:43;98076.00;;;17.51
15360;BMP280;7779;49.596;11.070;2023-08-07T09:32:12;98072.72;;;17.55
15360;BMP280;7779;49.596;11.070;2023-08-07T09:34:43;98070.19;;;17.55
15360;BMP280;7779;49.596;11.070;2023-08-07T09:37:09;98082.03;;;17.56
15360;BMP280;7779;49.596;11.070;2023-08-07T09:39:39;98080.38;;;17.56
15360;BMP280;7779;49.596;11.070;2023-08-07T09:42:13;98089.69;;;17.57
15360;BMP280;7779;49.596;11.070;2023-08-07T09:44:41;98087.19;;;17.59
15360;BMP280;7779;49.596;11.070;2023-08-07T09:47:18;98092.28;;;17.60
15360;BMP280;7779;49.596;11.070;2023-08-07T09:49:45;98099.91;;;17.60
15360;BMP280;7779;49.596;11.070;2023-08-07T09:52:14;98097.31;;;17.59
15360;BMP280;7779;49.596;11.070;2023-08-07T09:54:41;98099.75;;;17.56
15360;BMP280;7779;49.596;11.070;2023-08-07T09:57:07;98098.88;;;17.54
15360;BMP280;7779;49.596;11.070;2023-08-07T09:59:34;98105.63;;;17.53
15360;BMP280;7779;49.596;11.070;2023-08-07T10:02:01;98109.91;;;17.56
15360;BMP280;7779;49.596;11.070;2023-08-07T10:04:28;98103.28;;;17.60
15360;BMP280;7779;49.596;11.070;2023-08-07T10:06:54;98106.84;;;17.68
15360;BMP280;7779;49.596;11.070;2023-08-07T10:09:22;98104.53;;;17.76
15360;BMP280;7779;49.596;11.070;2023-08-07T10:11:49;98111.41;;;17.81
15360;BMP280;7779;49.596;11.070;2023-08-07T10:14:16;98112.44;;;17.89
15360;BMP280;7779;49.596;11.070;2023-08-07T10:16:42;98108.34;;;17.94
15360;BMP280;7779;49.596;11.070;2023-08-07T10:19:09;98112.75;;;18.02
15360;BMP280;7779;49.596;11.070;2023-08-07T10:21:42;98114.69;;;18.11
15360;BMP280;7779;49.596;11.070;2023-08-07T10:24:10;98119.06;;;18.16
15360;BMP280;7779;49.596;11.070;2023-08-07T10:26:43;98124.25;;;18.22
15360;BMP280;7779;49.596;11.070;2023-08-07T10:29:14;98124.41;;;18.28
15360;BMP280;7779;49.596;11.070;2023-08-07T10:31:43;98127.03;;;18.33
15360;BMP280;7779;49.596;11.070;2023-08-07T10:34:10;98125.47;;;18.38
15360;BMP280;7779;49.596;11.070;2023-08-07T10:36:37;98128.91;;;18.39
15360;BMP280;7779;49.596;11.070;2023-08-07T10:39:12;98122.25;;;18.44
15360;BMP280;7779;49.596;11.070;2023-08-07T10:41:52;98131.66;;;18.48
15360;BMP280;7779;49.596;11.070;2023-08-07T10:44:29;98125.81;;;18.52
15360;BMP280;7779;49.596;11.070;2023-08-07T10:46:57;98128.44;;;18.55
15360;BMP280;7779;49.596;11.070;2023-08-07T10:49:40;98132.72;;;18.59
15360;BMP280;7779;49.596;11.070;2023-08-07T10:52:15;98126.84;;;18.62
15360;BMP280;7779;49.596;11.070;2023-08-07T10:54:49;98130.31;;;18.65
15360;BMP280;7779;49.596;11.070;2023-08-07T10:57:17;98125.28;;;18.67
15360;BMP280;7779;49.596;11.070;2023-08-07T11:00:02;98141.44;;;18.70
15360;BMP280;7779;49.596;11.070;2023-08-07T11:02:31;98141.44;;;18.70
15360;BMP280;7779;49.596;11.070;2023-08-07T11:04:59;98147.34;;;18.71
15360;BMP280;7779;49.596;11.070;2023-08-07T11:07:26;98148.25;;;18.71
15360;BMP280;7779;49.596;11.070;2023-08-07T11:09:57;98143.16;;;18.71
15360;BMP280;7779;49.596;11.070;2023-08-07T11:12:29;98148.25;;;18.71
15360;BMP280;7779;49.596;11.070;2023-08-07T11:14:57;98140.63;;;18.71
15360;BMP280;7779;49.596;11.070;2023-08-07T11:17:28;98142.28;;;18.71
15360;BMP280;7779;49.596;11.070;2023-08-07T11:19:55;98139.72;;;18.69
15360;BMP280;7779;49.596;11.070;2023-08-07T11:22:22;98148.28;;;18.74
15360;BMP280;7779;49.596;11.070;2023-08-07T11:24:47;98150.94;;;18.78
15360;BMP280;7779;49.596;11.070;2023-08-07T11:27:13;98141.75;;;18.85
15360;BMP280;7779;49.596;11.070;2023-08-07T11:29:39;98148.66;;;18.92
15360;BMP280;7779;49.596;11.070;2023-08-07T11:32:05;98155.63;;;18.99
15360;BMP280;7779;49.596;11.070;2023-08-07T11:34:32;98152.31;;;19.03
15360;BMP280;7779;49.596;11.070;2023-08-07T11:36:59;98148.97;;;19.04
15360;BMP280;7779;49.596;11.070;2023-08-07T11:39:26;98146.44;;;19.04
15360;BMP280;7779;49.596;11.070;2023-08-07T11:41:52;98150.66;;;19.05
15360;BMP280;7779;49.596;11.070;2023-08-07T11:44:22;98151.50;;;19.05
15360;BMP280;7779;49.596;11.070;2023-08-07T11:46:50;98151.50;;;19.04
15360;BMP280;7779;49.596;11.070;2023-08-07T11:49:17;98158.25;;;19.03
15360;BMP280;7779;49.596;11.070;2023-08-07T11:51:43;98157.41;;;19.03
15360;BMP280;7779;49.596;11.070;2023-08-07T11:54:14;98160.81;;;19.05
15360;BMP280;7779;49.596;11.070;2023-08-07T11:56:42;98160.00;;;19.06
15360;BMP280;7779;49.596;11.070;2023-08-07T11:59:08;98160.84;;;19.06
15360;BMP280;7779;49.596;11.070;2023-08-07T12:01:38;98165.97;;;19.08
15360;BMP280;7779;49.596;11.070;2023-08-07T12:06:37;98173.81;;;19.18
15360;BMP280;7779;49.596;11.070;2023-08-07T12:09:05;98180.66;;;19.22
15360;BMP280;7779;49.596;11.070;2023-08-07T12:11:38;98178.97;;;19.22
15360;BMP280;7779;49.596;11.070;2023-08-07T12:14:03;98164.56;;;19.23
15360;BMP280;7779;49.596;11.070;2023-08-07T12:16:34;98173.06;;;19.23
15360;BMP280;7779;49.596;11.070;2023-08-07T12:19:00;98181.53;;;19.24
15360;BMP280;7779;49.596;11.070;2023-08-07T12:21:27;98186.63;;;19.24
15360;BMP280;7779;49.596;11.070;2023-08-07T12:23:57;98178.19;;;19.26
15360;BMP280;7779;49.596;11.070;2023-08-07T12:26:23;98176.50;;;19.25
15360;BMP280;7779;49.596;11.070;2023-08-07T12:28:49;98184.94;;;19.24
15360;BMP280;7779;49.596;11.070;2023-08-07T12:31:15;98189.97;;;19.21
15360;BMP280;7779;49.596;11.070;2023-08-07T12:33:41;98187.34;;;19.18
15360;BMP280;7779;49.596;11.070;2023-08-07T12:36:07;98191.47;;;19.14
15360;BMP280;7779;49.596;11.070;2023-08-07T12:38:33;98197.34;;;19.10
15360;BMP280;7779;49.596;11.070;2023-08-07T12:40:59;98192.13;;;19.05
15360;BMP280;7779;49.596;11.070;2023-08-07T12:43:25;98189.50;;;19.01
15360;BMP280;7779;49.596;11.070;2023-08-07T12:45:51;98203.75;;;18.96
15360;BMP280;7779;49.596;11.070;2023-08-07T12:48:18;98201.94;;;18.90
15360;BMP280;7779;49.596;11.070;2023-08-07T12:50:44;98213.75;;;18.88
15360;BMP280;7779;49.596;11.070;2023-08-07T12:53:10;98208.59;;;18.84
15360;BMP280;7779;49.596;11.070;2023-08-07T12:55:35;98211.84;;;18.80
15360;BMP280;7779;49.596;11.070;2023-08-07T12:58:01;98206.72;;;18.77
15360;BMP280;7779;49.596;11.070;2023-08-07T13:00:27;98219.28;;;18.71
15360;BMP280;7779;49.596;11.070;2023-08-07T13:02:53;98219.13;;;18.65
15360;BMP280;7779;49.596;11.070;2023-08-07T13:05:21;98210.50;;;18.57
15360;BMP280;7779;49.596;11.070;2023-08-07T13:07:48;98213.72;;;18.50
15360;BMP280;7779;49.596;11.070;2023-08-07T13:10:16;98211.09;;;18.46
15360;BMP280;7779;49.596;11.070;2023-08-07T13:12:44;98214.34;;;18.42
15360;BMP280;7779;49.596;11.070;2023-08-07T13:15:12;98217.69;;;18.39
15360;BMP280;7779;49.596;11.070;2023-08-07T13:17:39;98211.69;;;18.36
15360;BMP280;7779;49.596;11.070;2023-08-07T13:20:07;98219.25;;;18.35
15360;BMP280;7779;49.596;11.070;2023-08-07T13:22:37;98220.03;;;18.32
15360;BMP280;7779;49.596;11.070;2023-08-07T13:25:04;98220.78;;;18.28
15360;BMP280;7779;49.596;11.070;2023-08-07T13:27:31;98225.81;;;18.27
15360;BMP280;7779;49.596;11.070;2023-08-07T13:29:57;98228.34;;;18.27
15360;BMP280;7779;49.596;11.070;2023-08-07T13:32:25;98231.69;;;18.26
15360;BMP280;7779;49.596;11.070;2023-08-07T13:34:51;98234.22;;;18.26
15360;BMP280;7779;49.596;11.070;2023-08-07T13:37:17;98233.44;;;18.27
15360;BMP280;7779;49.596;11.070;2023-08-07T13:39:42;98227.56;;;18.29
15360;BMP280;7779;49.596;11.070;2023-08-07T13:42:08;98232.75;;;18.34
15360;BMP280;7779;49.596;11.070;2023-08-07T13:44:38;98237.97;;;18.39
15360;BMP280;7779;49.596;11.070;2023-08-07T13:47:05;98235.56;;;18.45
15360;BMP280;7779;49.596;11.070;2023-08-07T13:49:31;98239.88;;;18.48
15360;BMP280;7779;49.596;11.070;2023-08-07T13:51:57;98236.53;;;18.50
15360;BMP280;7779;49.596;11.070;2023-08-07T13:54:23;98242.56;;;18.54
15360;BMP280;7779;49.596;11.070;2023-08-07T13:56:49;98243.53;;;18.59
15360;BMP280;7779;49.596;11.070;2023-08-07T13:59:16;98238.50;;;18.62
15360;BMP280;7779;49.596;11.070;2023-08-07T14:01:42;98246.16;;;18.63
15360;BMP280;7779;49.596;11.070;2023-08-07T14:04:07;98255.50;;;18.64
15360;BMP280;7779;49.596;11.070;2023-08-07T14:06:33;98252.97;;;18.64
15360;BMP280;7779;49.596;11.070;2023-08-07T14:08:59;98257.16;;;18.64
15360;BMP280;7779;49.596;11.070;2023-08-07T14:11:25;98261.41;;;18.65
15360;BMP280;7779;49.596;11.070;2023-08-07T14:13:59;98257.19;;;18.65
15360;BMP280;7779;49.596;11.070;2023-08-07T14:16:25;98263.09;;;18.64